createdAt,value
2023-05-10T00:07:31.179Z,7.21
2023-05-10T00:17:37.684Z,6.93
2023-05-10T00:27:44.200Z,6.73
2023-05-10T00:37:50.899Z,6.33
2023-05-10T00:47:58.613Z,6.47
2023-05-10T00:58:05.522Z,6.48
2023-05-10T01:08:12.062Z,6.32
2023-05-10T01:18:21.800Z,6.23
2023-05-10T01:29:01.921Z,5.86
2023-05-10T01:39:13.130Z,5.83
2023-05-10T01:49:32.489Z,5.67
2023-05-10T01:59:43.616Z,5.60
2023-05-10T02:09:50.365Z,5.59
2023-05-10T02:19:58.111Z,5.52
2023-05-10T02:30:04.969Z,5.35
2023-05-10T02:40:12.471Z,5.23
2023-05-10T02:50:19.157Z,5.14
2023-05-10T03:00:27.014Z,5.05
2023-05-10T03:10:34.554Z,4.91
2023-05-10T03:20:44.891Z,5.04
2023-05-10T03:30:52.193Z,4.81
2023-05-10T03:40:58.773Z,4.99
2023-05-10T03:51:05.362Z,5.52
2023-05-10T04:01:12.112Z,5.90
2023-05-10T04:11:18.636Z,6.57
2023-05-10T04:21:25.172Z,7.25
2023-05-10T04:31:31.661Z,7.64
2023-05-10T04:41:40.504Z,8.30
2023-05-10T04:51:47.125Z,9.17
2023-05-10T05:01:53.671Z,9.33
2023-05-10T05:12:00.548Z,10.05
2023-05-10T05:22:09.179Z,11.35
2023-05-10T05:32:15.611Z,11.73
2023-05-10T05:42:22.113Z,11.28
2023-05-10T05:52:28.656Z,12.24
2023-05-10T06:02:35.397Z,14.07
2023-05-10T06:12:42.394Z,14.98
2023-05-10T06:22:49.384Z,14.25
2023-05-10T06:32:56.137Z,14.94
2023-05-10T06:43:02.740Z,15.65
2023-05-10T06:53:09.256Z,14.56
2023-05-10T07:03:15.880Z,15.24
2023-05-10T07:13:22.663Z,16.32
2023-05-10T07:23:29.189Z,16.52
2023-05-10T07:33:35.999Z,17.20
2023-05-10T07:43:42.506Z,17.10
2023-05-10T07:53:48.950Z,17.10
2023-05-10T08:03:55.819Z,18.16
2023-05-10T08:14:02.377Z,18.47
2023-05-10T08:24:09.090Z,18.66
2023-05-10T08:34:15.554Z,17.67
2023-05-10T08:44:23.167Z,18.79
2023-05-10T08:54:29.731Z,18.58
2023-05-10T09:04:36.448Z,19.22
2023-05-10T09:14:43.069Z,19.30
2023-05-10T09:24:49.583Z,19.81
2023-05-10T09:34:56.228Z,18.57
2023-05-10T09:45:06.999Z,19.63
2023-05-10T09:55:13.483Z,20.24
2023-05-10T10:05:20.179Z,20.24
2023-05-10T10:15:27.300Z,20.08
2023-05-10T10:25:34.188Z,21.97
2023-05-10T10:35:41.172Z,21.79
2023-05-10T10:46:09.848Z,20.41
2023-05-10T10:56:17.527Z,21.07
2023-05-10T11:06:34.962Z,22.42
2023-05-10T11:16:45.626Z,23.20
2023-05-10T11:26:53.576Z,21.77
2023-05-10T11:37:00.197Z,22.27
2023-05-10T11:47:07.922Z,21.47
2023-05-10T11:57:14.428Z,21.88
2023-05-10T12:07:20.924Z,21.17
2023-05-10T12:17:30.282Z,22.61
2023-05-10T12:27:37.291Z,21.99
2023-05-10T12:37:45.400Z,22.06
2023-05-10T12:47:51.970Z,20.90
2023-05-10T12:57:58.543Z,21.35
2023-05-10T13:08:05.030Z,21.39
2023-05-10T13:18:11.624Z,21.22
2023-05-10T13:28:18.130Z,21.75
2023-05-10T13:38:24.784Z,20.75
2023-05-10T13:48:31.394Z,21.04
2023-05-10T13:58:38.853Z,20.91
2023-05-10T14:08:45.397Z,20.22
2023-05-10T14:18:51.959Z,20.74
2023-05-10T14:28:58.701Z,21.20
2023-05-10T14:39:05.373Z,21.13
2023-05-10T14:49:11.966Z,20.61
2023-05-10T14:59:18.504Z,19.93
2023-05-10T15:09:25.628Z,19.90
2023-05-10T15:19:32.243Z,20.12
2023-05-10T15:29:39.000Z,19.93
2023-05-10T15:39:46.350Z,20.00
2023-05-10T15:49:52.844Z,19.61
2023-05-10T15:59:59.966Z,19.46
2023-05-10T16:10:08.139Z,19.58
2023-05-10T16:20:14.741Z,19.16
2023-05-10T16:30:23.628Z,19.16
2023-05-10T16:40:30.776Z,18.94
2023-05-10T16:50:37.451Z,18.73
2023-05-10T17:00:44.537Z,18.42
2023-05-10T17:10:51.244Z,18.39
2023-05-10T17:20:57.922Z,18.14
2023-05-10T17:31:04.697Z,17.96
2023-05-10T17:41:11.391Z,17.65
2023-05-10T17:51:18.119Z,17.37
2023-05-10T18:01:25.143Z,16.97
2023-05-10T18:11:32.006Z,16.56
2023-05-10T18:21:40.000Z,16.14
2023-05-10T18:31:46.972Z,15.74
2023-05-10T18:41:53.810Z,15.48
2023-05-10T18:52:00.492Z,15.14
2023-05-10T19:02:07.231Z,14.96
2023-05-10T19:12:13.931Z,14.80
2023-05-10T19:22:35.346Z,14.45
2023-05-10T19:32:48.696Z,14.16
2023-05-10T19:42:58.125Z,13.93
2023-05-10T19:53:04.728Z,13.81
2023-05-10T20:03:11.367Z,13.54
2023-05-10T20:13:18.100Z,13.41
2023-05-10T20:23:24.622Z,13.08
2023-05-10T20:33:31.431Z,12.75
2023-05-10T20:43:37.984Z,12.52
2023-05-10T20:53:44.440Z,12.24
2023-05-10T21:03:50.978Z,11.96
2023-05-10T21:13:58.206Z,11.75
2023-05-10T21:24:04.863Z,11.48
2023-05-10T21:34:11.336Z,11.32
2023-05-10T21:44:17.916Z,11.16
2023-05-10T21:54:24.396Z,11.03
2023-05-10T22:04:30.977Z,10.83
2023-05-10T22:14:37.453Z,10.54
2023-05-10T22:24:43.958Z,9.85
2023-05-10T22:34:50.495Z,9.98
2023-05-10T22:44:57.191Z,9.84
2023-05-10T22:55:03.745Z,9.51
2023-05-10T23:05:10.959Z,9.28
2023-05-10T23:15:17.651Z,9.16
2023-05-10T23:25:24.241Z,9.10
2023-05-10T23:35:30.779Z,9.38
2023-05-10T23:45:38.047Z,9.29
2023-05-10T23:55:44.666Z,9.08
